Hit Tracker is now ESPN Home Run Tracker! Hit Tracker founder Greg Rybarczyk is now collaborating with the ESPN Stats & Information Group to continue tracking all MLB home runs, and helping baseball fans know "How Far It Really Went!™" Please credit any information on this site to ESPN Stats & Information Group. For more information and analysis on home runs, please contact founder Greg Rybarczyk. E-Mail ESPN Home Run Tracker
Main Page | Ballparks | Park Overlays | Glossary | Highlight Homers | Feedback | Bio | 3 Types of HR's | AAA Home Run Derby Last Updated: September 17, 2014, 10:59 pm PST
Welcome to the ESPN Home Run Tracker! Check out the ESPN MLB Scoreboard throughout the 2014 season! Contact us at grybar@hittrackeronline.com.
Season:
Ballpark detail for Miller Park
Ballpark # of Home Runs HR per game Avg.
True
Distance
Avg.
Speed
Off
Bat
Avg.
Std.
Dist.
Miller Park 165 2.12 395.3 102.9 393.4

Scatter Plot of Home Runs Miller Park
 Overlay Ballpark:
Without range rings   With range rings

2014 Season Home Runs for Miller Park
Click headers to sort
Date Video Path Hitter Hitter
Team
 ^
Pitcher Pitcher
Team
INN Ballpark Type/
Luck
True
Dist.
Speed
Off
Bat
Elev.
Angle
Horiz.
Angle
Apex Impact Due To: Std.
Dist.
#
Parks
Wind Temp. Alt.
05/06/14 Video View Goldschmidt, Paul ARI Estrada, Marco MIL 1 Miller Park PL 389 106.6 24.8 116.3 67 0 0 1 388 30
05/06/14 Video View Owings, Chris ARI Estrada, Marco MIL 6 Miller Park PL 391 104.9 26.0 114.0 73 0 -1 1 390 30
05/06/14 Video View Hill, Aaron ARI Kintzler, Brandon MIL 8 Miller Park JE 384 99.0 28.0 103.6 84 0 -1 1 384 18
05/07/14 Video View Goldschmidt, Paul ARI Peralta, Wily MIL 3 Miller Park JE 388 101.3 26.6 106.1 77 0 0 1 387 26
04/01/14 Video View Heyward, Jason ATL Lohse, Kyle MIL 5 Miller Park PL 374 98.4 32.3 69.3 101 0 -1 2 374 24
04/01/14 Video View Freeman, Freddie ATL Lohse, Kyle MIL 6 Miller Park PL 377 105.9 25.6 54.5 65 0 -1 1 377 30
04/01/14 Video View Freeman, Freddie ATL Duke, Zach MIL 8 Miller Park PL 392 99.9 30.9 75.8 103 0 -1 2 391 28
04/02/14 Video View Johnson, Chris ATL Garza, Matt MIL 7 Miller Park JE 388 103.6 22.7 101.4 63 0 0 0 388 4
05/28/14 Video View Cruz, Nelson BAL Gallardo, Yovani MIL 6 Miller Park PL 427 105.2 24.4 90.5 84 0 0 1 426 26
05/28/14 Video View Cruz, Nelson BAL Gallardo, Yovani MIL 2 Miller Park PL 393 100.3 26.9 78.8 83 0 0 1 392 18
05/27/14 Video View Pearce, Steve BAL Garza, Matt MIL 7 Miller Park JE 374 107.4 23.9 125.3 58 0 0 1 374 30
05/27/14 Video View Cruz, Nelson BAL Garza, Matt MIL 5 Miller Park PL 404 103.2 23.8 83.0 73 0 0 0 403 14
05/26/14 Video View Schoop, Jonathan BAL Rodriguez, Francisco MIL 9 Miller Park JE/L 382 98.5 29.3 108.4 85 3 1 1 376 21
05/26/14 Video View Schoop, Jonathan BAL Lohse, Kyle MIL 7 Miller Park PL 391 108.9 23.4 117.4 60 2 1 1 388 30
05/31/14 Video View Rizzo, Anthony CHC Peralta, Wily MIL 4 Miller Park PL 404 102.4 32.0 76.2 116 -1 1 2 403 30
05/31/14 Video View Rizzo, Anthony CHC Peralta, Wily MIL 6 Miller Park PL 392 104.5 34.3 63.6 120 -3 1 3 391 30
05/30/14 Video View Schierholtz, Nate CHC Estrada, Marco MIL 6 Miller Park JE/L 362 97.7 26.7 70.7 70 -1 0 1 362 9
04/26/14 Video View Valbuena, Luis CHC Estrada, Marco MIL 4 Miller Park PL 406 105.4 26.6 71.0 82 0 -1 1 405 30
04/26/14 Video View Castillo, Welington CHC Estrada, Marco MIL 8 Miller Park JE 380 99.3 27.5 72.6 77 2 1 1 377 20
04/27/14 Video View Castro, Starlin CHC Peralta, Wily MIL 2 Miller Park JE 410 101.1 31.8 90.9 119 0 0 2 408 15
04/27/14 Video View Castro, Starlin CHC Kintzler, Brandon MIL 8 Miller Park JE 372 108.7 22.8 126.0 54 0 0 1 371 29
06/14/14 Video View Hamilton, Billy CIN Smith, Will MIL 8 Miller Park JE 368 98.2 32.0 116.0 93 0 0 2 367 29
06/15/14 Video View Hamilton, Billy CIN Estrada, Marco MIL 1 Miller Park PL 371 99.4 34.1 64.2 107 -2 1 2 370 29
06/15/14 Video View Phillips, Brandon CIN Estrada, Marco MIL 1 Miller Park JE 396 101.5 24.4 97.5 73 0 0 0 395 7
06/15/14 Video View Frazier, Todd CIN Estrada, Marco MIL 5 Miller Park JE 394 112.6 17.3 96.9 46 0 0 0 394 1
07/21/14 Video View Hamilton, Billy CIN Peralta, Wily MIL 6 Miller Park PL 417 102.7 30.4 81.7 111 1 1 2 413 28
07/21/14 Video View Negron, Kris CIN Smith, Will MIL 8 Miller Park JE 396 103.4 22.8 81.6 66 0 0 0 396 10
09/12/14 Video View Negron, Kris CIN Lohse, Kyle MIL 1 Miller Park PL 427 104.6 25.7 91.8 91 0 0 1 426 25
09/14/14 Video View Frazier, Todd CIN Garza, Matt MIL 6 Miller Park PL 412 104.6 30.9 107.2 109 0 0 2 410 30
06/26/14 Video View Wheeler, Ryan COL Peralta, Wily MIL 4 Miller Park PL 403 104.4 24.8 76.5 75 0 0 0 402 29
06/27/14 Video View Rutledge, Josh COL Rodriguez, Francisco MIL 9 Miller Park JE 371 98.4 33.6 113.3 105 0 0 2 369 27
06/29/14 Video View Culberson, Charlie COL Kintzler, Brandon MIL 8 Miller Park PL 387 103.0 27.4 114.5 77 0 1 1 385 30
08/08/14 Video View Gonzalez, Adrian LAD Lohse, Kyle MIL 6 Miller Park PL 402 102.6 29.5 73.7 98 -1 0 1 402 30
08/09/14 Video View Gonzalez, Adrian LAD Fiers, Mike MIL 4 Miller Park ND 408 106.9 28.2 64.7 87 -1 1 1 407 30
08/10/14 Video View Ellis, A.J. LAD Estrada, Marco MIL 8 Miller Park JE 391 105.1 21.2 99.3 59 2 0 0 389 4
09/08/14 Video View Ozuna, Marcell MIA Gallardo, Yovani MIL 2 Miller Park ND 462 110.4 25.6 91.0 103 -1 0 1 461 30
09/08/14 Video View Jones, Garrett MIA Gallardo, Yovani MIL 2 Miller Park JE 387 102.4 23.3 101.0 66 0 0 1 387 4
09/08/14 Video View Stanton, Giancarlo MIA Gallardo, Yovani MIL 3 Miller Park PL 387 99.3 31.4 74.7 103 0 0 2 386 26
09/09/14 Video View McGehee, Casey MIA Rodriguez, Francisco MIL 9 Miller Park PL 392 98.7 29.9 97.6 100 -2 0 1 393 8
09/09/14 Video View Ozuna, Marcell MIA Rodriguez, Francisco MIL 9 Miller Park JE 386 105.5 22.7 106.5 61 0 0 0 386 23
09/10/14 Video View Ozuna, Marcell MIA Peralta, Wily MIL 7 Miller Park PL 401 103.3 27.4 72.6 84 0 0 1 400 30
09/11/14 Video View Ozuna, Marcell MIA Smith, Will MIL 8 Miller Park JE 358 96.4 29.2 67.0 78 0 -1 1 358 12
06/01/14 Video View Braun, Ryan MIL Samardzija, Jeff CHC 1 Miller Park JE 384 104.3 23.7 108.7 62 1 1 0 382 22
06/01/14 Video View Gennett, Scooter MIL Grimm, Justin CHC 5 Miller Park PL 384 108.0 23.8 60.5 61 0 0 1 383 29
06/02/14 Video View Reynolds, Mark MIL Gibson, Kyle MIN 5 Miller Park PL 375 98.9 29.7 65.6 83 3 1 1 370 26
06/02/14 Video View Lucroy, Jonathan MIL Swarzak, Anthony MIN 8 Miller Park PL 396 98.7 33.6 81.6 117 7 1 2 387 6
05/30/14 Video View Braun, Ryan MIL Wood, Travis CHC 1 Miller Park JE 395 102.5 23.3 82.1 69 0 0 1 395 10
05/28/14 Video View Davis, Khris MIL Matusz, Brian BAL 8 Miller Park PL 365 99.4 36.0 118.2 116 0 0 2 362 30
05/27/14 Video View Reynolds, Mark MIL Chen, Wei-Yin BAL 2 Miller Park PL 419 106.1 29.6 108.5 103 0 0 2 416 30
05/27/14 Video View Davis, Khris MIL Chen, Wei-Yin BAL 4 Miller Park PL 391 98.2 30.4 98.2 100 0 0 1 390 5
05/27/14 Video View Gomez, Carlos MIL Chen, Wei-Yin BAL 1 Miller Park PL 394 105.0 23.0 103.6 65 0 0 0 393 20
05/26/14 Video View Davis, Khris MIL Tillman, Chris BAL 6 Miller Park ND 439 107.3 25.3 82.1 86 3 1 1 433 29
05/26/14 Video View Overbay, Lyle MIL Tillman, Chris BAL 6 Miller Park ND 404 103.7 35.6 70.8 133 11 4 3 387 30
04/01/14 Video View Gomez, Carlos MIL Wood, Alex ATL 1 Miller Park PL 420 103.2 26.4 88.5 92 0 0 1 420 25
04/11/14 Video View Ramirez, Aramis MIL Liriano, Francisco PIT 4 Miller Park PL 393 100.0 32.2 102.8 112 0 -1 2 392 27
04/11/14 Video View Reynolds, Mark MIL Liriano, Francisco PIT 5 Miller Park ND 435 108.5 27.4 104.3 99 0 0 1 434 30
04/12/14 Video View Gomez, Carlos MIL Volquez, Edinson PIT 1 Miller Park PL 430 108.6 21.1 90.0 70 0 0 0 430 26
04/15/14 Video View Ramirez, Aramis MIL Miller, Shelby STL 4 Miller Park JE 388 105.6 22.2 104.0 60 0 0 0 388 14
04/21/14 Video View Ramirez, Aramis MIL Cashner, Andrew SD 3 Miller Park PL 439 108.6 22.9 87.2 80 0 0 0 439 28
04/22/14 Video View Gennett, Scooter MIL Kennedy, Ian SD 5 Miller Park PL 392 104.2 24.0 74.5 68 0 0 0 392 24
04/23/14 Video View Segura, Jean MIL Ross, Tyson SD 2 Miller Park JE 380 108.1 22.4 115.2 56 0 0 1 379 25
04/23/14 Video View Davis, Khris MIL Ross, Tyson SD 4 Miller Park PL 388 103.1 34.3 113.7 120 0 -1 2 387 30
04/25/14 Video View Overbay, Lyle MIL Villanueva, Carlos CHC 4 Miller Park PL 394 102.4 25.6 75.9 76 0 -1 0 394 26
04/26/14 Video View Davis, Khris MIL Wood, Travis CHC 6 Miller Park PL 407 108.2 23.9 108.5 70 0 0 1 406 30
05/05/14 Video View Gomez, Carlos MIL Bolsinger, Mike ARI 1 Miller Park JE 409 101.3 26.0 90.4 86 0 -1 0 408 8
05/05/14 Video View Maldonado, Martin MIL Bolsinger, Mike ARI 2 Miller Park PL 385 100.7 31.6 111.1 101 0 -1 2 385 30
05/05/14 Video View Segura, Jean MIL Delgado, Randall ARI 6 Miller Park PL 390 105.3 27.8 120.8 78 0 -1 1 390 30
05/09/14 Video View Reynolds, Mark MIL Robertson, David NYY 9 Miller Park PL 358 95.7 33.6 57.5 90 10 -2 1 348 25
05/10/14 Video View Gomez, Carlos MIL Sabathia, CC NYY 1 Miller Park ND 439 112.8 31.9 115.4 124 0 0 3 435 30
05/10/14 Video View Lucroy, Jonathan MIL Sabathia, CC NYY 3 Miller Park PL 430 105.1 25.8 86.8 91 0 0 1 429 28
05/10/14 Video View Ramirez, Aramis MIL Sabathia, CC NYY 3 Miller Park PL 397 104.8 33.9 116.4 118 0 1 3 394 30
05/15/14 Video View Weeks, Rickie MIL Rodriguez, Wandy PIT 3 Miller Park PL 366 98.5 33.0 61.0 96 0 -1 2 365 30
05/15/14 Video View Maldonado, Martin MIL Rodriguez, Wandy PIT 5 Miller Park PL 404 102.4 32.6 102.4 121 0 -1 2 402 30
06/13/14 Video View Davis, Khris MIL Bailey, Homer CIN 7 Miller Park PL 384 101.0 31.6 64.7 97 0 1 2 381 29
06/14/14 Video View Braun, Ryan MIL Hoover, J.J. CIN 8 Miller Park PL 370 98.7 30.2 64.5 85 0 0 1 369 26
06/15/14 Video View Lucroy, Jonathan MIL Leake, Mike CIN 5 Miller Park JE 411 101.5 31.0 93.1 116 -3 2 2 411 18
06/25/14 Video View Gennett, Scooter MIL Strasburg, Stephen WSH 2 Miller Park PL 417 104.8 24.1 84.1 80 -1 0 1 417 0
06/25/14 Video View Davis, Khris MIL Strasburg, Stephen WSH 4 Miller Park PL 421 108.6 23.5 102.3 76 0 -1 0 421 30
06/26/14 Video View Weeks, Rickie MIL Friedrich, Christian COL 1 Miller Park PL 406 107.8 27.8 119.5 82 0 0 2 404 30
06/26/14 Video View Ramirez, Aramis MIL Friedrich, Christian COL 1 Miller Park PL 377 99.8 33.4 114.5 106 0 1 2 375 30
06/26/14 Video View Gennett, Scooter MIL Kahnle, Tommy COL 8 Miller Park PL 367 97.1 29.3 69.9 82 0 0 1 366 16
06/28/14 Video View Gomez, Carlos MIL Chacin, Jhoulys COL 1 Miller Park JE 413 103.7 23.7 92.8 77 0 0 1 413 17
06/29/14 Video View Braun, Ryan MIL De La Rosa, Jorge COL 4 Miller Park PL 377 97.8 32.4 70.7 103 1 2 2 372 18
07/08/14 Video View Gennett, Scooter MIL Kendrick, Kyle PHI 1 Miller Park PL 383 104.9 25.2 62.9 66 2 0 1 380 28
07/08/14 Video View Overbay, Lyle MIL Kendrick, Kyle PHI 1 Miller Park ND 419 106.6 31.6 64.5 108 8 0 2 408 30
07/08/14 Video View Reynolds, Mark MIL Kendrick, Kyle PHI 6 Miller Park JE 364 99.4 25.8 67.6 65 1 0 0 362 9
07/10/14 Video View Gomez, Carlos MIL Buchanan, David PHI 6 Miller Park PL 388 99.8 31.8 100.6 114 -8 0 2 394 23
07/13/14 Video View Davis, Khris MIL Maness, Seth STL 5 Miller Park JE 389 98.5 31.6 76.0 102 3 1 2 383 22
07/22/14 Video View Ramirez, Aramis MIL Bailey, Homer CIN 1 Miller Park JE 370 103.9 25.4 125.0 61 2 1 1 365 29
07/22/14 Video View Braun, Ryan MIL Bailey, Homer CIN 1 Miller Park JE 354 95.3 30.8 62.4 80 2 1 1 349 10
07/22/14 Video View Lucroy, Jonathan MIL Bailey, Homer CIN 6 Miller Park JE 386 97.8 28.7 101.3 87 1 2 1 382 4
07/22/14 Video View Lucroy, Jonathan MIL LeCure, Sam CIN 9 Miller Park PL 375 102.4 27.7 123.4 71 3 1 1 371 30
07/23/14 Video View Reynolds, Mark MIL Leake, Mike CIN 6 Miller Park PL 415 111.3 23.9 113.7 69 2 0 1 412 30
07/23/14 Video View Reynolds, Mark MIL Diaz, Jumbo CIN 8 Miller Park PL 402 104.3 24.6 104.7 72 4 0 1 397 27
07/24/14 Video View Lucroy, Jonathan MIL Gee, Dillon NYM 1 Miller Park JE 371 104.7 24.4 119.4 61 0 0 1 370 27
07/24/14 Video View Davis, Khris MIL Matsuzaka, Daisuke NYM 6 Miller Park PL 396 100.6 26.6 99.2 84 -1 0 1 396 15
07/24/14 Video View Braun, Ryan MIL Matsuzaka, Daisuke NYM 7 Miller Park ND 432 107.9 31.1 103.5 124 0 -1 2 431 30
07/25/14 Video View Gomez, Carlos MIL Wheeler, Zack NYM 7 Miller Park JE 397 99.7 26.8 82.6 84 1 0 1 395 8
07/26/14 Video View Reynolds, Mark MIL Torres, Carlos NYM 6 Miller Park PL 427 103.5 29.7 94.0 110 2 1 2 422 28
08/05/14 Video View Gomez, Carlos MIL Lincecum, Tim SF 3 Miller Park JE 367 98.4 32.0 115.5 95 -2 0 2 368 30
08/05/14 Video View Parra, Gerardo MIL Machi, Jean SF 7 Miller Park PL 394 99.9 30.4 79.6 104 -2 -1 2 396 25
08/06/14 Video View Gomez, Carlos MIL Vogelsong, Ryan SF 1 Miller Park ND 443 110.2 25.0 101.2 89 -1 0 1 442 30
08/06/14 Video View Davis, Khris MIL Casilla, Santiago SF 9 Miller Park JE 380 104.7 24.5 113.9 64 0 0 1 379 28
08/08/14 Video View Weeks, Rickie MIL Frias, Carlos LAD 8 Miller Park PL 423 107.5 22.6 97.4 73 1 0 0 421 30
08/09/14 Video View Davis, Khris MIL Greinke, Zack LAD 2 Miller Park JE 389 99.3 27.8 78.7 86 -2 0 1 389 19
08/09/14 Video View Gomez, Carlos MIL Greinke, Zack LAD 6 Miller Park PL 383 104.9 28.0 124.4 76 -1 0 1 383 30
08/20/14 Video View Gomez, Carlos MIL Dickey, R.A. TOR 6 Miller Park PL 419 104.6 31.8 108.2 112 9 1 2 407 30
08/22/14 Video View Braun, Ryan MIL Locke, Jeff PIT 1 Miller Park PL 402 102.1 28.3 102.3 95 -3 0 1 404 30
08/23/14 Video View Gennett, Scooter MIL Volquez, Edinson PIT 2 Miller Park PL 389 102.4 31.2 60.7 93 3 1 2 384 30
09/04/14 Video View Weeks, Rickie MIL Gonzales, Marco STL 6 Miller Park JE 420 103.0 26.0 86.8 87 2 1 1 417 22
09/05/14 Video View Davis, Khris MIL Lackey, John STL 6 Miller Park PL 403 105.9 26.1 111.0 77 0 1 1 402 30
09/10/14 Video View Clark, Matt MIL Dyson, Sam MIA 7 Miller Park JE 351 99.5 39.4 68.5 142 0 1 4 346 13
09/11/14 Video View Braun, Ryan MIL Eovaldi, Nathan MIA 2 Miller Park PL 425 105.8 25.2 82.0 86 0 0 1 424 29
09/11/14 Video View Clark, Matt MIL Eovaldi, Nathan MIA 4 Miller Park JE 390 100.1 25.2 98.0 75 0 -1 0 390 4
09/13/14 Video View Ramirez, Aramis MIL Holmberg, David CIN 4 Miller Park PL 409 101.2 31.1 96.1 113 0 0 2 407 22
09/14/14 Video View Clark, Matt MIL Ondrusek, Logan CIN 7 Miller Park ND 422 107.6 26.3 73.4 86 0 0 1 421 30
09/14/14 Video View Reynolds, Mark MIL Hoover, J.J. CIN 8 Miller Park PL 379 99.9 31.4 113.9 95 0 0 2 378 30
06/03/14 Video View Willingham, Josh MIN Gallardo, Yovani MIL 3 Miller Park JE 389 100.1 24.8 98.1 72 1 0 0 388 2
06/03/14 Video View Dozier, Brian MIN Gallardo, Yovani MIL 5 Miller Park PL 380 100.2 32.3 115.4 99 1 0 2 377 30
07/24/14 Video View Duda, Lucas NYM Garza, Matt MIL 7 Miller Park PL 423 104.1 25.7 87.0 89 0 0 1 423 26
07/25/14 Video View Duda, Lucas NYM Rodriguez, Francisco MIL 9 Miller Park PL 388 108.5 22.0 69.7 57 0 0 0 388 25
07/26/14 Video View Granderson, Curtis NYM Peralta, Wily MIL 5 Miller Park JE 362 109.8 21.2 51.8 48 0 1 1 361 27
07/27/14 Video View Duda, Lucas NYM Nelson, Jimmy MIL 6 Miller Park PL 414 105.0 29.0 72.8 98 0 -1 1 413 30
05/09/14 Video View Solarte, Yangervis NYY Gallardo, Yovani MIL 4 Miller Park PL 367 95.1 30.6 69.1 83 11 -2 1 356 2
05/10/14 Video View Teixeira, Mark NYY Lohse, Kyle MIL 6 Miller Park JE 369 100.6 27.3 117.3 71 0 0 1 368 25
05/11/14 Video View Teixeira, Mark NYY Rodriguez, Francisco MIL 9 Miller Park PL 400 104.0 27.2 70.3 82 0 0 0 399 30
07/07/14 Video View Utley, Chase PHI Estrada, Marco MIL 1 Miller Park JE 384 97.3 30.7 74.9 93 5 2 1 376 6
07/08/14 Video View Brown, Domonic PHI Peralta, Wily MIL 3 Miller Park PL 390 107.0 25.4 60.1 68 1 0 1 388 30
07/09/14 Video View Utley, Chase PHI Lohse, Kyle MIL 1 Miller Park PL 375 104.7 24.8 61.2 62 0 0 0 374 27
07/09/14 Video View Rollins, Jimmy PHI Lohse, Kyle MIL 6 Miller Park JE 379 97.4 31.8 75.0 101 2 0 2 376 14
07/10/14 Video View Howard, Ryan PHI Wang, Wei-Chung MIL 9 Miller Park PL 419 106.1 22.5 85.1 74 1 0 0 418 22
04/11/14 Video View Walker, Neil PIT Peralta, Wily MIL 7 Miller Park PL 418 103.0 29.1 82.9 105 0 0 2 417 27
05/13/14 Video View Walker, Neil PIT Estrada, Marco MIL 1 Miller Park PL 411 101.6 28.8 96.4 100 0 0 1 410 24
05/15/14 Video View Sanchez, Tony PIT Gallardo, Yovani MIL 5 Miller Park JE 388 98.9 29.6 77.0 94 0 0 2 387 21
05/15/14 Video View Sanchez, Gaby PIT Gallardo, Yovani MIL 6 Miller Park PL 417 102.7 28.9 83.2 104 0 0 2 416 24
08/22/14 Video View McCutchen, Andrew PIT Gallardo, Yovani MIL 5 Miller Park PL 431 106.3 25.9 83.4 93 -2 0 1 432 30
08/22/14 Video View Harrison, Josh PIT Kintzler, Brandon MIL 8 Miller Park PL 373 101.0 30.0 120.3 84 -2 0 1 374 30
08/23/14 Video View Alvarez, Pedro PIT Peralta, Wily MIL 4 Miller Park PL 399 100.4 33.6 108.6 112 13 0 2 383 30
08/23/14 Video View Martin, Russell PIT Peralta, Wily MIL 5 Miller Park JE 387 104.5 22.0 101.7 59 0 0 0 386 4
08/23/14 Video View Alvarez, Pedro PIT Peralta, Wily MIL 5 Miller Park PL 393 102.6 28.6 113.9 83 4 1 1 388 30
08/24/14 Video View Marte, Starling PIT Fiers, Mike MIL 2 Miller Park PL 414 103.0 26.0 95.6 91 -1 0 0 415 23
08/24/14 Video View McCutchen, Andrew PIT Rodriguez, Francisco MIL 9 Miller Park JE 379 99.1 30.4 105.5 100 -8 0 1 385 27
04/21/14 Video View Denorfia, Chris SD Peralta, Wily MIL 7 Miller Park JE 356 97.8 26.4 67.5 66 0 0 0 356 7
04/22/14 Video View Headley, Chase SD Figaro, Alfredo MIL 12 Miller Park ND 441 107.5 26.4 83.5 99 0 -1 1 440 30
08/05/14 Video View Sandoval, Pablo SF Nelson, Jimmy MIL 6 Miller Park PL 404 102.8 31.1 77.5 113 -4 0 2 407 29
08/06/14 Video View Sandoval, Pablo SF Gorzelanny, Tom MIL 8 Miller Park JE 383 102.7 23.7 104.3 65 0 0 0 383 9
04/14/14 Video View Peralta, Jhonny STL Garza, Matt MIL 2 Miller Park JE 412 101.7 26.1 91.8 86 0 0 0 410 15
04/14/14 Video View Jay, Jon STL Garza, Matt MIL 6 Miller Park PL 372 104.0 25.5 59.1 65 0 -1 0 372 27
04/15/14 Video View Holliday, Matt STL Henderson, Jim MIL 9 Miller Park JE 423 108.4 20.8 86.9 66 0 0 0 423 24
04/15/14 Video View Peralta, Jhonny STL Henderson, Jim MIL 9 Miller Park PL 400 101.1 30.5 102.6 104 0 0 2 399 30
04/16/14 Video View Craig, Allen STL Peralta, Wily MIL 6 Miller Park PL 374 99.0 28.5 71.1 83 0 -3 1 376 22
07/11/14 Video View Adams, Matt STL Gallardo, Yovani MIL 4 Miller Park ND 432 106.8 25.7 81.1 90 0 0 1 431 30
07/11/14 Video View Peralta, Jhonny STL Gallardo, Yovani MIL 6 Miller Park PL 401 105.6 28.4 116.2 86 0 0 1 400 30
07/11/14 Video View Wong, Kolten STL Gallardo, Yovani MIL 6 Miller Park ND 413 105.3 29.7 70.7 101 0 0 2 411 30
07/11/14 Video View Holliday, Matt STL Rodriguez, Francisco MIL 9 Miller Park PL 388 106.1 24.7 115.1 66 0 0 1 387 30
07/12/14 Video View Wong, Kolten STL Nelson, Jimmy MIL 2 Miller Park JE/L 385 96.5 35.5 76.1 117 18 1 3 364 0
09/05/14 Video View Peralta, Jhonny STL Fiers, Mike MIL 6 Miller Park JE 376 102.2 27.0 118.0 71 0 1 1 374 30
09/06/14 Video View Adams, Matt STL Lohse, Kyle MIL 1 Miller Park PL 382 98.1 32.3 73.2 103 3 1 2 377 21
09/06/14 Video View Taveras, Oscar STL Lohse, Kyle MIL 4 Miller Park PL 359 99.0 37.5 65.5 127 0 1 3 355 24
09/07/14 Video View Peralta, Jhonny STL Figaro, Alfredo MIL 9 Miller Park JE 383 99.0 27.7 102.6 85 -3 0 1 385 16
08/20/14 Video View Bautista, Jose TOR Kintzler, Brandon MIL 6 Miller Park PL 398 105.6 22.3 100.7 63 0 0 0 398 16
08/20/14 Video View Rasmus, Colby TOR Smith, Will MIL 9 Miller Park PL 416 101.2 29.8 84.3 104 6 0 1 409 16
06/23/14 Video View LaRoche, Adam WSH Garza, Matt MIL 3 Miller Park JE 421 109.7 19.3 91.5 60 0 0 0 421 20
06/24/14 Video View Rendon, Anthony WSH Smith, Will MIL 8 Miller Park JE 389 98.7 27.7 80.7 85 0 0 1 388 9
06/24/14 Video View Zimmerman, Ryan WSH Fiers, Mike MIL 16 Miller Park JE 383 98.7 28.0 104.3 83 0 0 1 381 17


About HitTracker | Contact Us
© 2006-2009 HitTrackerOnline